Time;durP1;ratioP1;P1;durP2;ratioP2;P2;SDS_P1;SDS_P2;PMS_P1;PMS_P2;Temp;Humidity;BMP_temperature;BMP_pressure;BME280_temperature;BME280_humidity;BME280_pressure;Samples;Min_cycle;Max_cycle;Signal;HPM_P1;HPM_P2
2023/10/16 00:01:31;;;;;;;15.50;5.10;;;;;;;6.85;63.97;99077.42;108321;1261;105820;-91
2023/10/16 00:04:01;;;;;;;14.00;5.20;;;;;;;6.85;63.98;99078.70;108355;1262;94261;-91
2023/10/16 00:06:30;;;;;;;18.50;5.60;;;;;;;6.86;64.16;99080.39;108353;1261;94344;-90
2023/10/16 00:09:14;;;;;;;18.20;5.60;;;;;;;6.85;64.25;99078.88;108292;1261;109377;-91
2023/10/16 00:11:44;;;;;;;14.60;5.00;;;;;;;6.85;64.03;99081.86;108305;1262;94511;-92
2023/10/16 00:14:27;;;;;;;13.70;4.60;;;;;;;6.87;64.09;99076.66;108219;1262;107752;-91
2023/10/16 00:17:02;;;;;;;15.70;4.50;;;;;;;6.88;64.13;99081.73;108297;1260;94336;-92
2023/10/16 00:19:48;;;;;;;16.40;5.50;;;;;;;6.88;64.40;99079.60;108349;1260;94815;-91
2023/10/16 00:22:16;;;;;;;12.70;5.00;;;;;;;6.84;64.42;99080.67;108292;1259;107578;-91
2023/10/16 00:24:46;;;;;;;15.40;5.00;;;;;;;6.80;64.15;99080.36;108381;1261;95500;-91
2023/10/16 00:27:21;;;;;;;16.10;5.80;;;;;;;6.78;64.25;99078.67;108269;1260;107365;-91
2023/10/16 00:29:49;;;;;;;13.10;4.60;;;;;;;6.77;64.27;99078.59;108266;1262;94463;-90
2023/10/16 00:32:24;;;;;;;18.40;4.90;;;;;;;6.77;64.34;99081.76;108301;1260;94318;-91
2023/10/16 00:34:52;;;;;;;15.90;4.00;;;;;;;6.76;64.16;99079.91;108294;1262;110147;-91
2023/10/16 00:37:25;;;;;;;14.70;4.40;;;;;;;6.74;64.34;99076.65;108383;1260;94474;-92
2023/10/16 00:39:54;;;;;;;15.20;4.40;;;;;;;6.73;64.47;99072.66;108250;1260;106262;-91
2023/10/16 00:42:24;;;;;;;10.80;3.50;;;;;;;6.72;64.49;99076.27;108307;1263;95107;-91
2023/10/16 00:44:56;;;;;;;12.00;4.70;;;;;;;6.70;64.57;99075.80;108369;1260;94558;-91
2023/10/16 00:47:25;;;;;;;12.60;4.30;;;;;;;6.71;64.58;99075.07;108314;1261;109367;-91
2023/10/16 00:49:54;;;;;;;14.10;5.30;;;;;;;6.70;64.60;99074.59;108263;1260;94383;-91
2023/10/16 00:52:23;;;;;;;15.20;4.70;;;;;;;6.71;64.54;99076.48;108268;1261;107705;-92
2023/10/16 00:54:53;;;;;;;15.30;5.00;;;;;;;6.70;64.68;99071.96;108272;1261;94847;-92
2023/10/16 00:57:27;;;;;;;16.80;5.10;;;;;;;6.68;64.66;99069.77;108168;1260;94292;-92
2023/10/16 00:59:58;;;;;;;13.00;4.80;;;;;;;6.67;64.73;99069.47;108345;1261;109883;-91
2023/10/16 01:02:31;;;;;;;16.60;5.00;;;;;;;6.67;64.61;99072.98;108383;1261;95239;-91
2023/10/16 01:05:10;;;;;;;17.90;5.60;;;;;;;6.65;64.83;99076.29;108214;1260;106702;-91
2023/10/16 01:08:17;;;;;;;;;;;;;;;;;;;;;
2023/10/16 01:11:26;;;;;;;15.50;4.50;;;;;;;6.61;64.69;99074.22;108317;1265;94281;-92
2023/10/16 01:13:56;;;;;;;13.00;4.60;;;;;;;6.55;65.14;99077.53;108336;1261;110254;-91
2023/10/16 01:16:55;;;;;;;10.70;5.00;;;;;;;6.52;64.92;99085.98;108255;1260;97499;-91
2023/10/16 01:22:56;;;;;;;;;;;;;;;;;;;;;
2023/10/16 01:26:35;;;;;;;15.20;4.50;;;;;;;6.52;64.92;99081.08;108287;1261;94397;-91
2023/10/16 01:29:25;;;;;;;;;;;;;;;;;;;;;
2023/10/16 01:32:05;;;;;;;16.30;5.60;;;;;;;6.48;65.11;99077.42;108383;1261;95555;-91
2023/10/16 01:35:13;;;;;;;16.10;4.30;;;;;;;6.45;65.25;99080.05;108249;1260;107216;-91
2023/10/16 01:37:49;;;;;;;15.70;4.40;;;;;;;6.43;65.38;99084.23;108361;1261;94463;-91
2023/10/16 01:44:10;;;;;;;16.10;5.10;;;;;;;6.42;65.21;99088.10;108389;1260;109497;-91
2023/10/16 01:47:12;;;;;;;14.50;5.80;;;;;;;6.39;65.14;99088.27;108234;1259;94860;-91
2023/10/16 01:50:40;;;;;;;14.80;5.40;;;;;;;6.40;65.50;99091.58;108288;1260;107107;-90
2023/10/16 01:53:43;;;;;;;17.20;6.40;;;;;;;6.39;65.28;99096.21;108305;1261;94414;-91
2023/10/16 01:56:48;;;;;;;14.10;5.50;;;;;;;6.36;65.33;99093.74;108329;1260;94314;-91
2023/10/16 01:59:38;;;;;;;16.10;5.80;;;;;;;6.35;65.43;99096.80;108295;1261;110005;-92
2023/10/16 02:05:45;;;;;;;14.80;5.00;;;;;;;6.28;65.50;99102.11;108270;1260;107696;-91
2023/10/16 02:08:56;;;;;;;;;;;;;;;;;;;;;
2023/10/16 02:11:59;;;;;;;16.60;4.90;;;;;;;6.24;65.79;99099.28;108380;1259;94284;-91
2023/10/16 02:14:31;;;;;;;12.30;4.30;;;;;;;6.23;65.62;99097.08;108280;1260;111102;-90
2023/10/16 02:17:03;;;;;;;20.60;5.50;;;;;;;6.22;65.61;99098.17;108445;1259;95804;-92
2023/10/16 02:19:38;;;;;;;14.50;4.60;;;;;;;6.22;65.87;99099.79;108387;1259;107620;-91
2023/10/16 02:22:38;;;;;;;11.80;4.80;;;;;;;6.19;66.25;99103.09;108308;1260;94269;-89
2023/10/16 02:28:58;;;;;;;;;;;;;;;;;;;;;
2023/10/16 02:35:20;;;;;;;17.60;5.60;;;;;;;6.08;66.69;99104.40;108368;1259;107613;-91
2023/10/16 02:41:28;;;;;;;16.60;5.90;;;;;;;6.02;66.32;99112.80;108297;1260;94398;-91
2023/10/16 02:44:22;;;;;;;16.70;5.80;;;;;;;6.04;66.56;99113.08;108415;1261;109924;-90
2023/10/16 02:47:30;;;;;;;18.20;6.00;;;;;;;6.05;66.82;99115.14;108419;1259;96923;-90
2023/10/16 02:50:04;;;;;;;15.80;5.50;;;;;;;6.06;66.69;99116.63;108362;1259;107669;-89
2023/10/16 02:53:27;;;;;;;;;;;;;;;;;;;;;
2023/10/16 03:28:41;;;;;;;16.60;6.00;;;;;;;6.59;66.71;99123.82;107498;1261;117028;-90
2023/10/16 03:31:15;;;;;;;14.30;5.30;;;;;;;6.60;66.92;99122.02;108145;1247;94335;-90
2023/10/16 03:34:00;;;;;;;17.60;5.60;;;;;;;6.63;67.02;99122.59;108454;1247;94314;-90
2023/10/16 03:36:58;;;;;;;15.60;5.50;;;;;;;6.66;66.85;99126.97;109043;1235;108226;-91
2023/10/16 03:41:44;;;;;;;15.80;5.30;;;;;;;6.69;67.09;99125.97;108984;1241;95214;-89
2023/10/16 03:44:39;;;;;;;17.10;6.00;;;;;;;6.68;67.03;99122.30;108652;1247;95143;-90
2023/10/16 03:47:58;;;;;;;15.00;5.20;;;;;;;6.68;67.05;99123.55;108708;1240;107136;-90
2023/10/16 03:54:30;;;;;;;15.30;5.80;;;;;;;6.70;67.26;99123.59;108892;1246;106425;-90
2023/10/16 03:57:35;;;;;;;16.80;5.80;;;;;;;6.70;67.08;99127.27;109089;1237;95274;-90
2023/10/16 04:04:32;;;;;;;15.20;5.90;;;;;;;6.74;67.15;99133.09;109445;1234;107767;-92
2023/10/16 04:11:22;;;;;;;14.40;6.20;;;;;;;6.80;67.18;99133.62;109256;1232;107464;-90
2023/10/16 04:17:34;;;;;;;17.20;6.20;;;;;;;6.81;67.42;99128.59;110174;1230;95222;-90
2023/10/16 04:26:57;;;;;;;14.70;6.20;;;;;;;6.82;67.69;99121.86;109668;1234;108038;-90
2023/10/16 04:48:23;;;;;;;18.20;5.20;;;;;;;6.76;67.54;99120.27;108576;1237;96376;-86
2023/10/16 04:50:40;;;;;;;14.00;5.00;;;;;;;6.74;67.66;99126.87;108901;1234;109959;-85
2023/10/16 04:53:25;;;;;;;16.00;5.00;;;;;;;6.73;67.33;99131.34;108463;1234;95201;-89
2023/10/16 04:58:28;;;;;;;11.60;4.70;;;;;;;6.72;67.61;99136.90;108713;1246;95204;-88
2023/10/16 05:06:38;;;;;;;16.00;4.80;;;;;;;6.68;67.83;99135.17;108604;1239;95498;-87
2023/10/16 06:14:45;;;;;;;15.00;5.80;;;;;;;6.99;67.81;99177.83;108392;1237;108487;-87
2023/10/16 06:17:30;;;;;;;15.60;5.40;;;;;;;7.04;67.83;99178.11;108514;1234;95287;-87
2023/10/16 06:20:04;;;;;;;20.30;8.30;;;;;;;7.07;67.74;99174.92;108484;1236;107266;-86
2023/10/16 06:22:46;;;;;;;;;;;;;;;;;;;;;
2023/10/16 06:26:03;;;;;;;19.00;5.80;;;;;;;7.12;67.89;99191.59;108692;1239;95239;-88
2023/10/16 06:29:13;;;;;;;;;;;;;;;;;;;;;
2023/10/16 06:46:09;;;;;;;12.90;4.20;;;;;;;7.14;68.06;99211.23;105966;1253;95585;-87
2023/10/16 06:48:16;;;;;;;17.30;5.30;;;;;;;7.18;67.99;99213.33;106691;1257;109357;-87
2023/10/16 06:51:03;;;;;;;16.80;4.70;;;;;;;7.19;67.97;99215.52;107689;1255;96005;-86
2023/10/16 06:54:14;;;;;;;12.20;4.30;;;;;;;7.21;68.06;99223.70;107484;1243;107073;-88
2023/10/16 06:56:39;;;;;;;12.50;4.80;;;;;;;7.24;68.04;99225.16;107844;1243;95392;-86
2023/10/16 06:59:07;;;;;;;15.10;5.00;;;;;;;7.24;67.78;99228.64;107975;1238;95213;-87
2023/10/16 07:14:17;;;;;;;21.00;8.70;;;;;;;7.38;67.97;99242.50;106445;1257;95520;-87
2023/10/16 07:17:05;;;;;;;25.80;9.10;;;;;;;7.41;67.77;99248.16;106216;1265;94901;-82
2023/10/16 07:19:32;;;;;;;20.70;6.90;;;;;;;7.46;67.93;99252.27;105813;1261;108775;-83
2023/10/16 07:26:45;;;;;;;9.20;4.00;;;;;;;7.52;67.89;99255.36;106748;1248;108074;-82
2023/10/16 07:29:23;;;;;;;9.10;3.40;;;;;;;7.54;67.86;99256.25;107519;1238;95350;-83
2023/10/16 07:32:18;;;;;;;;;;;;;;;;;;;;;
2023/10/16 07:35:16;;;;;;;;;;;;;;;;;;;;;
2023/10/16 07:38:28;;;;;;;12.50;5.20;;;;;;;7.57;67.74;99257.13;107831;1245;95691;-86
2023/10/16 07:41:53;;;;;;;12.40;4.10;;;;;;;7.59;67.81;99257.90;108082;1244;108189;-85
2023/10/16 07:44:45;;;;;;;7.50;3.60;;;;;;;7.59;67.89;99258.96;108114;1238;95241;-84
2023/10/16 07:49:01;;;;;;;9.90;3.90;;;;;;;7.62;67.83;99263.23;107884;1240;95291;-84
2023/10/16 07:52:05;;;;;;;11.80;3.40;;;;;;;7.66;67.91;99267.10;108798;1234;108242;-84
2023/10/16 07:54:43;;;;;;;10.00;4.30;;;;;;;7.68;67.73;99264.84;108614;1232;95320;-85
2023/10/16 07:57:11;;;;;;;11.70;3.70;;;;;;;7.72;67.95;99261.24;109178;1237;107675;-83
2023/10/16 07:59:40;;;;;;;11.90;4.10;;;;;;;7.78;67.64;99270.47;108643;1238;96396;-86
2023/10/16 08:02:44;;;;;;;11.00;4.10;;;;;;;7.79;67.81;99263.86;109119;1234;95198;-86
2023/10/16 08:05:19;;;;;;;9.50;3.60;;;;;;;7.85;67.79;99267.04;108896;1235;108205;-85
2023/10/16 08:08:35;;;;;;;10.00;4.00;;;;;;;7.91;67.70;99276.23;108494;1241;95623;-84
2023/10/16 08:11:43;;;;;;;;;;;;;;;;;;;;;
2023/10/16 08:15:48;;;;;;;;;;;;;;;;;;;;;
2023/10/16 08:21:58;;;;;;;19.50;7.10;;;;;;;8.01;67.16;99293.08;108192;1244;109488;-86
2023/10/16 08:24:28;;;;;;;12.10;3.80;;;;;;;8.03;67.40;99293.14;108061;1245;97505;-84
2023/10/16 08:27:10;;;;;;;12.00;4.50;;;;;;;8.07;67.31;99289.96;108801;1238;108134;-82
2023/10/16 08:29:50;;;;;;;14.30;5.20;;;;;;;8.12;67.44;99293.17;108666;1237;96578;-83
2023/10/16 08:35:09;;;;;;;12.50;4.30;;;;;;;8.22;67.25;99299.17;108393;1237;109626;-87
2023/10/16 08:37:42;;;;;;;15.90;4.60;;;;;;;8.27;67.28;99299.23;108498;1235;96542;-85
2023/10/16 08:41:18;;;;;;;;;;;;;;;;;;;;;
2023/10/16 08:44:51;;;;;;;;;;;;;;;;;;;;;
2023/10/16 08:47:42;;;;;;;12.50;4.50;;;;;;;8.29;67.53;99313.23;111430;1236;94223;-83
2023/10/16 08:51:32;;;;;;;13.90;4.70;;;;;;;8.26;67.55;99313.25;111242;1234;109915;-85
2023/10/16 08:54:35;;;;;;;14.30;5.40;;;;;;;8.17;67.58;99317.24;111459;1233;96065;-81
2023/10/16 08:57:41;;;;;;;24.10;6.40;;;;;;;8.15;67.60;99319.48;110801;1238;107913;-83
2023/10/16 09:00:20;;;;;;;21.90;7.00;;;;;;;8.15;67.42;99323.77;111418;1236;94470;-84
2023/10/16 09:02:53;;;;;;;18.40;6.10;;;;;;;8.13;67.64;99324.57;111245;1233;94336;-87
2023/10/16 09:05:48;;;;;;;;;;;;;;;;;;;;;
2023/10/16 09:08:52;;;;;;;16.60;5.60;;;;;;;8.28;67.71;99329.18;110779;1234;96360;-87
2023/10/16 09:11:26;;;;;;;14.50;5.30;;;;;;;8.33;67.48;99322.52;111449;1233;108559;-87
2023/10/16 09:14:13;;;;;;;23.60;6.90;;;;;;;8.38;67.42;99324.69;111260;1234;94701;-84
2023/10/16 09:16:44;;;;;;;13.80;5.70;;;;;;;8.43;67.54;99325.45;111494;1235;94296;-83
2023/10/16 09:19:13;;;;;;;17.50;6.00;;;;;;;8.52;67.64;99327.77;111284;1234;108226;-85
2023/10/16 09:30:57;;;;;;;11.70;4.50;;;;;;;8.72;67.34;99336.14;110189;1250;94348;-83
2023/10/16 09:33:43;;;;;;;14.60;4.60;;;;;;;8.76;66.78;99332.20;110417;1237;94654;-85
2023/10/16 09:36:20;;;;;;;14.10;4.70;;;;;;;8.79;67.30;99331.29;110923;1238;109493;-85
2023/10/16 09:38:56;;;;;;;13.90;4.80;;;;;;;8.89;67.48;99335.81;110906;1238;95241;-86
2023/10/16 09:44:47;;;;;;;53.20;21.40;;;;;;;8.90;67.12;99342.14;110832;1244;94260;-86
2023/10/16 09:47:26;;;;;;;42.00;21.00;;;;;;;8.83;66.70;99337.95;110818;1237;94292;-85
2023/10/16 09:50:31;;;;;;;29.40;11.50;;;;;;;8.77;67.23;99340.59;110982;1241;110301;-86
2023/10/16 09:53:01;;;;;;;26.80;12.10;;;;;;;8.76;67.07;99338.58;110876;1237;95414;-85
2023/10/16 09:55:38;;;;;;;21.90;8.30;;;;;;;8.73;67.06;99339.66;110855;1238;107467;-85
2023/10/16 09:58:09;;;;;;;18.10;5.90;;;;;;;8.70;66.97;99336.66;110858;1238;94652;-85
2023/10/16 10:03:36;;;;;;;15.10;5.60;;;;;;;8.58;66.91;99340.72;102485;1295;637367;-84
2023/10/16 10:06:26;;;;;;;13.00;4.70;;;;;;;8.51;66.83;99344.83;104687;1275;94809;-88
2023/10/16 10:33:58;;;;;;;49.30;18.10;;;;;;;8.86;67.06;99356.54;105077;1295;107405;-83
2023/10/16 10:36:57;;;;;;;;;;;;;;;;;;;;;
2023/10/16 10:39:50;;;;;;;19.60;6.90;;;;;;;8.93;67.21;99356.28;106357;1282;109686;-82
2023/10/16 10:43:05;;;;;;;22.30;10.10;;;;;;;8.98;67.17;99357.94;106617;1262;93733;-83
2023/10/16 10:51:14;;;;;;;;;;;;;;;;;;;;;
2023/10/16 10:54:31;;;;;;;25.60;8.90;;;;;;;8.85;67.06;99352.86;108554;1253;97186;-83
2023/10/16 11:01:52;;;;;;;49.50;21.30;;;;;;;8.94;67.35;99350.73;108380;1256;92875;-82
2023/10/16 11:27:36;;;;;;;;;;;;;;;;;;;;;
2023/10/16 11:30:11;;;;;;;17.30;5.60;;;;;;;9.13;67.07;99353.63;105105;1289;110672;-82
2023/10/16 11:32:45;;;;;;;14.50;5.30;;;;;;;9.11;67.12;99352.56;105658;1282;95898;-83
2023/10/16 11:35:36;;;;;;;13.20;5.10;;;;;;;9.12;67.05;99356.16;106512;1272;107824;-83
2023/10/16 11:43:00;;;;;;;16.30;6.10;;;;;;;9.31;67.19;99347.75;107728;1263;93364;-84
2023/10/16 11:45:44;;;;;;;20.60;7.10;;;;;;;9.37;67.12;99344.69;107842;1264;107581;-82
2023/10/16 11:54:10;;;;;;;17.90;6.00;;;;;;;9.38;66.68;99346.21;107686;1267;93370;-83
2023/10/16 11:57:16;;;;;;;14.20;5.50;;;;;;;9.23;65.83;99351.98;107936;1259;93271;-83
2023/10/16 12:00:30;;;;;;;;;;;;;;;;;;;;;
2023/10/16 12:03:38;;;;;;;8.00;3.80;;;;;;;8.90;65.68;99361.60;108107;1259;95105;-86
2023/10/16 12:06:14;;;;;;;15.00;4.70;;;;;;;8.91;66.22;99364.35;108116;1259;107440;-87
2023/10/16 12:08:51;;;;;;;26.50;6.80;;;;;;;8.91;65.40;99365.26;108229;1259;92990;-86
2023/10/16 12:11:43;;;;;;;12.70;4.40;;;;;;;8.86;65.65;99362.52;108190;1259;93021;-85
2023/10/16 12:14:16;;;;;;;24.30;10.10;;;;;;;8.84;66.13;99366.39;108089;1259;108465;-85
2023/10/16 12:16:47;;;;;;;47.20;20.60;;;;;;;8.85;66.09;99365.98;108022;1259;96627;-85
2023/10/16 12:19:33;;;;;;;24.10;10.20;;;;;;;8.87;66.36;99364.92;108124;1259;107098;-87
2023/10/16 12:22:07;;;;;;;15.70;6.50;;;;;;;8.90;66.25;99365.84;108197;1259;92955;-84
2023/10/16 12:24:48;;;;;;;12.60;5.70;;;;;;;8.89;65.69;99371.37;108115;1259;93147;-86
2023/10/16 12:27:50;;;;;;;19.60;6.60;;;;;;;8.87;65.84;99366.73;108159;1259;109089;-86
2023/10/16 12:30:25;;;;;;;18.70;6.00;;;;;;;8.87;65.88;99369.37;108170;1259;95328;-87
2023/10/16 12:32:56;;;;;;;18.70;6.40;;;;;;;8.91;65.95;99367.73;108215;1259;106746;-86
2023/10/16 12:35:45;;;;;;;19.20;6.80;;;;;;;8.92;65.74;99365.31;108151;1261;93008;-86
2023/10/16 12:38:18;;;;;;;13.90;5.60;;;;;;;8.98;65.75;99365.86;108249;1259;93234;-85
2023/10/16 12:41:00;;;;;;;18.40;6.70;;;;;;;9.01;65.59;99365.52;108214;1259;108253;-85
2023/10/16 12:43:48;;;;;;;15.80;6.00;;;;;;;9.06;66.03;99363.61;108249;1259;95377;-85
2023/10/16 12:46:27;;;;;;;19.10;7.30;;;;;;;9.14;65.65;99358.89;108234;1259;107839;-86
2023/10/16 12:49:06;;;;;;;19.00;7.10;;;;;;;9.21;65.65;99356.85;108203;1259;93198;-86
2023/10/16 12:51:40;;;;;;;16.80;6.40;;;;;;;9.26;65.28;99361.02;108221;1258;92954;-84
2023/10/16 12:54:12;;;;;;;17.60;6.30;;;;;;;9.27;65.11;99359.66;108153;1259;106859;-85
2023/10/16 12:56:43;;;;;;;19.40;7.30;;;;;;;9.27;65.04;99359.51;108165;1259;95942;-85
2023/10/16 12:59:13;;;;;;;15.90;6.10;;;;;;;9.28;65.36;99356.63;108115;1259;105629;-84
2023/10/16 13:01:45;;;;;;;19.50;6.80;;;;;;;9.30;65.23;99357.21;108156;1259;93299;-85
2023/10/16 13:04:28;;;;;;;13.80;6.00;;;;;;;9.33;65.35;99357.21;108244;1259;92970;-83
2023/10/16 13:07:07;;;;;;;15.30;6.40;;;;;;;9.31;65.23;99355.20;108184;1259;108600;-84
2023/10/16 13:11:04;;;;;;;;;;;;;;;;;;;;;
2023/10/16 13:13:55;;;;;;;18.70;6.80;;;;;;;9.22;65.30;99350.58;108065;1259;107899;-85
2023/10/16 13:16:24;;;;;;;21.20;7.20;;;;;;;9.27;65.34;99347.98;108186;1259;92935;-87
2023/10/16 13:18:58;;;;;;;19.20;6.70;;;;;;;9.29;65.17;99338.88;108225;1259;92935;-85
2023/10/16 13:21:34;;;;;;;17.50;6.60;;;;;;;9.32;65.27;99342.02;108100;1260;108565;-83
2023/10/16 13:24:09;;;;;;;12.00;5.20;;;;;;;9.33;64.77;99343.89;108191;1259;95360;-87
2023/10/16 13:26:50;;;;;;;12.10;4.70;;;;;;;9.39;64.88;99342.48;108187;1259;107472;-86
2023/10/16 13:29:23;;;;;;;12.00;4.50;;;;;;;9.45;64.54;99342.61;108103;1259;93311;-84
2023/10/16 13:32:28;;;;;;;12.70;4.10;;;;;;;9.52;64.71;99345.18;108139;1259;93295;-85
2023/10/16 13:35:10;;;;;;;;;;;;;;;;;;;;;
2023/10/16 13:37:58;;;;;;;11.80;5.10;;;;;;;9.42;63.99;99350.77;108229;1259;95812;-87
2023/10/16 13:40:33;;;;;;;16.70;5.30;;;;;;;9.35;63.37;99354.74;107978;1259;107406;-85
2023/10/16 13:43:51;;;;;;;11.00;4.40;;;;;;;9.27;64.16;99345.90;108175;1259;93286;-82
2023/10/16 13:46:42;;;;;;;18.70;5.70;;;;;;;9.18;63.95;99346.98;108199;1261;93002;-88
2023/10/16 13:49:37;;;;;;;25.70;9.70;;;;;;;9.05;62.99;99354.16;108215;1259;108392;-80
2023/10/16 13:53:10;;;;;;;;;;;;;;;;;;;;;
2023/10/16 13:56:35;;;;;;;;;;;;;;;;;;;;;
2023/10/16 14:03:46;;;;;;;11.60;5.40;;;;;;;8.75;64.43;99342.52;107509;1270;93907;-86
2023/10/16 14:06:22;;;;;;;17.20;5.60;;;;;;;8.72;64.48;99340.42;107493;1267;109193;-86
2023/10/16 14:09:10;;;;;;;;;;;;;;;;;;;;;
2023/10/16 14:11:48;;;;;;;14.40;5.20;;;;;;;8.71;64.72;99339.05;107811;1259;107137;-83
2023/10/16 14:14:36;;;;;;;20.00;7.60;;;;;;;8.74;64.75;99344.02;108178;1259;93461;-79
2023/10/16 14:17:16;;;;;;;20.20;7.20;;;;;;;8.75;64.49;99343.06;108146;1259;93597;-78
2023/10/16 14:20:38;;;;;;;14.20;5.70;;;;;;;8.77;64.27;99341.29;108064;1259;107894;-80
2023/10/16 14:24:20;;;;;;;11.50;4.00;;;;;;;8.76;63.68;99343.86;108203;1258;95098;-79
2023/10/16 14:28:25;;;;;;;11.00;3.50;;;;;;;8.74;63.52;99337.59;108145;1259;107927;-80
2023/10/16 14:31:29;;;;;;;14.10;4.00;;;;;;;8.72;63.64;99337.09;108050;1259;93138;-80
2023/10/16 14:33:58;;;;;;;28.90;10.10;;;;;;;8.70;63.52;99339.48;108089;1261;93079;-80
2023/10/16 14:36:30;;;;;;;13.60;4.10;;;;;;;8.69;63.28;99341.30;108093;1261;109637;-85
2023/10/16 14:39:04;;;;;;;13.30;5.50;;;;;;;8.66;63.83;99342.17;108130;1261;95509;-86
2023/10/16 14:41:34;;;;;;;15.60;5.70;;;;;;;8.66;64.08;99342.87;108061;1261;107655;-85
2023/10/16 14:44:09;;;;;;;14.30;4.80;;;;;;;8.66;63.90;99345.55;108163;1262;93027;-84
2023/10/16 14:47:09;;;;;;;12.30;5.30;;;;;;;8.65;64.16;99344.02;108242;1260;92952;-84
2023/10/16 14:49:46;;;;;;;12.40;4.50;;;;;;;8.65;63.95;99346.98;108100;1261;108442;-84
2023/10/16 14:52:16;;;;;;;14.30;5.20;;;;;;;8.65;64.35;99346.48;108209;1259;95497;-83
2023/10/16 14:55:24;;;;;;;;;;;;;;;;;;;;;
2023/10/16 14:58:40;;;;;;;;;;;;;;;;;;;;;
2023/10/16 15:01:47;;;;;;;11.80;4.30;;;;;;;8.60;63.89;99350.13;108143;1259;93009;-84
2023/10/16 15:04:17;;;;;;;14.50;4.90;;;;;;;8.57;64.11;99348.19;108022;1260;108536;-84
2023/10/16 15:06:50;;;;;;;12.80;4.70;;;;;;;8.56;64.14;99356.05;108229;1260;95940;-86
2023/10/16 15:09:25;;;;;;;23.20;8.00;;;;;;;8.55;64.22;99357.19;108119;1260;107866;-78
2023/10/16 15:12:44;;;;;;;34.40;15.50;;;;;;;8.49;64.09;99359.40;108090;1259;94280;-79
2023/10/16 15:15:14;;;;;;;21.90;9.80;;;;;;;8.45;64.17;99360.90;108168;1261;94234;-78
2023/10/16 15:17:43;;;;;;;20.60;9.50;;;;;;;8.40;64.14;99365.91;108167;1262;110070;-78
2023/10/16 15:20:14;;;;;;;20.50;9.00;;;;;;;8.38;64.28;99368.71;108176;1259;95791;-77
2023/10/16 15:22:45;;;;;;;25.90;8.60;;;;;;;8.37;64.27;99369.64;108366;1253;107703;-77
2023/10/16 15:25:13;;;;;;;38.40;11.90;;;;;;;8.35;64.21;99370.98;108725;1253;94245;-77
2023/10/16 15:27:43;;;;;;;40.70;11.20;;;;;;;8.34;64.28;99378.28;108727;1257;94497;-77
2023/10/16 15:30:13;;;;;;;30.20;9.80;;;;;;;8.31;64.22;99387.31;108482;1253;109579;-77
2023/10/16 15:32:43;;;;;;;31.70;10.70;;;;;;;8.27;64.27;99394.77;108603;1253;97308;-77
2023/10/16 15:35:14;;;;;;;20.10;7.20;;;;;;;8.21;64.18;99402.74;108763;1253;107587;-77
2023/10/16 15:37:45;;;;;;;19.30;6.30;;;;;;;8.14;64.39;99409.48;108722;1253;94540;-77
2023/10/16 15:40:17;;;;;;;21.10;6.60;;;;;;;8.08;64.63;99419.39;108649;1258;94607;-77
2023/10/16 15:42:49;;;;;;;;;;;;;;;7.99;64.69;99426.75;108570;1258;109957;-77
2023/10/16 15:45:17;;;;;;;16.60;5.80;;;;;;;7.93;65.35;99426.06;108721;1253;95225;-77
2023/10/16 15:47:46;;;;;;;12.30;4.70;;;;;;;7.86;64.94;99423.05;108702;1253;107296;-77
2023/10/16 15:50:15;;;;;;;24.90;8.50;;;;;;;7.82;64.96;99419.04;108622;1254;94265;-77
2023/10/16 15:52:46;;;;;;;49.80;16.40;;;;;;;7.81;64.98;99417.67;108632;1254;94363;-77
2023/10/16 15:55:19;;;;;;;21.50;6.50;;;;;;;7.82;64.66;99418.15;108777;1253;108564;-77
2023/10/16 15:57:54;;;;;;;14.70;6.10;;;;;;;7.82;64.71;99419.56;108604;1253;95770;-77
2023/10/16 16:00:44;;;;;;;;;;;;;;;;;;;;;
2023/10/16 16:03:18;;;;;;;17.40;7.40;;;;;;;7.83;64.86;99422.35;108452;1253;94870;-77
2023/10/16 16:05:59;;;;;;;17.20;7.50;;;;;;;7.88;64.89;99426.09;108304;1253;94498;-78
2023/10/16 16:08:42;;;;;;;19.40;8.20;;;;;;;7.89;64.88;99430.81;108393;1253;109581;-77
2023/10/16 16:11:15;;;;;;;22.80;9.10;;;;;;;7.84;64.86;99429.34;108426;1254;95611;-78
2023/10/16 16:13:53;;;;;;;17.80;7.70;;;;;;;7.83;64.96;99433.30;108400;1257;108084;-77
2023/10/16 16:16:30;;;;;;;20.70;8.70;;;;;;;7.82;64.94;99430.86;108252;1253;94528;-77
2023/10/16 16:19:00;;;;;;;21.90;9.80;;;;;;;7.80;65.02;99435.23;108398;1253;94267;-77
2023/10/16 16:21:28;;;;;;;23.60;10.30;;;;;;;7.82;64.97;99433.52;108443;1253;109493;-77
2023/10/16 16:24:02;;;;;;;25.30;11.30;;;;;;;7.83;65.03;99434.00;108409;1253;95212;-78
2023/10/16 16:26:54;;;;;;;23.70;10.60;;;;;;;7.85;65.02;99440.92;108386;1260;107686;-78
2023/10/16 16:29:31;;;;;;;25.30;10.70;;;;;;;7.87;65.05;99445.41;108383;1253;94715;-79
2023/10/16 16:31:59;;;;;;;23.70;9.60;;;;;;;7.88;65.21;99445.36;108463;1253;94335;-78
2023/10/16 16:34:34;;;;;;;24.50;10.10;;;;;;;7.89;65.25;99446.35;108425;1253;110912;-77
2023/10/16 16:37:03;;;;;;;27.90;13.30;;;;;;;7.90;65.13;99444.71;108372;1253;95821;-78
2023/10/16 16:39:41;;;;;;;38.30;30.90;;;;;;;7.90;65.07;99444.39;108375;1253;107630;-77
2023/10/16 16:42:32;;;;;;;93.40;85.20;;;;;;;7.90;65.17;99444.89;108358;1254;94788;-80
2023/10/16 16:45:05;;;;;;;331.30;215.90;;;;;;;7.91;65.27;99444.88;108433;1253;95972;-79
2023/10/16 16:47:45;;;;;;;178.30;142.50;;;;;;;7.91;65.21;99448.23;108339;1254;109309;-79
2023/10/16 16:50:50;;;;;;;91.40;71.50;;;;;;;7.86;65.37;99452.70;108517;1253;95510;-80
2023/10/16 16:53:52;;;;;;;;;;;;;;;;;;;;;
2023/10/16 16:56:42;;;;;;;49.50;40.30;;;;;;;7.78;65.38;99443.98;108527;1254;94313;-78
2023/10/16 16:59:20;;;;;;;43.80;26.70;;;;;;;7.80;65.39;99443.89;108333;1253;94413;-78
2023/10/16 17:01:48;;;;;;;42.80;25.80;;;;;;;7.80;65.41;99448.63;108518;1253;109997;-78
2023/10/16 17:04:26;;;;;;;42.90;27.50;;;;;;;7.80;65.43;99448.98;108425;1253;94829;-79
2023/10/16 17:07:04;;;;;;;37.50;22.80;;;;;;;7.80;65.48;99449.16;108441;1253;106785;-78
2023/10/16 17:09:39;;;;;;;43.40;28.00;;;;;;;7.79;65.43;99449.38;108502;1254;94317;-79
2023/10/16 17:12:08;;;;;;;35.60;21.10;;;;;;;7.79;65.49;99452.41;108419;1253;94574;-78
2023/10/16 17:15:08;;;;;;;40.90;28.20;;;;;;;7.78;65.37;99452.08;108349;1253;110325;-80
2023/10/16 17:17:43;;;;;;;49.90;36.10;;;;;;;7.80;65.49;99454.83;108476;1255;95493;-80
2023/10/16 17:20:39;;;;;;;57.00;45.30;;;;;;;7.78;65.43;99452.64;108357;1253;107580;-79
2023/10/16 17:23:08;;;;;;;42.20;25.40;;;;;;;7.78;65.36;99453.34;108433;1254;94321;-78
2023/10/16 17:25:37;;;;;;;33.40;19.00;;;;;;;7.78;65.52;99453.87;108370;1254;94747;-79
2023/10/16 17:28:11;;;;;;;29.30;15.80;;;;;;;7.79;65.69;99454.90;108375;1253;109768;-79
2023/10/16 17:30:41;;;;;;;32.90;19.60;;;;;;;7.78;65.44;99457.21;108390;1253;95490;-79
2023/10/16 17:33:13;;;;;;;32.30;18.20;;;;;;;7.77;65.55;99456.24;108227;1253;108754;-79
2023/10/16 17:35:45;;;;;;;29.50;14.20;;;;;;;7.71;65.42;99456.55;108310;1261;94765;-79
2023/10/16 17:38:15;;;;;;;28.20;13.20;;;;;;;7.65;65.42;99460.42;108385;1253;94622;-78
2023/10/16 17:40:44;;;;;;;31.60;12.60;;;;;;;7.61;65.48;99460.59;108377;1253;109780;-79
2023/10/16 17:43:16;;;;;;;58.90;32.30;;;;;;;7.60;65.59;99462.95;108380;1253;96135;-79
2023/10/16 17:45:47;;;;;;;101.40;50.30;;;;;;;7.58;65.49;99460.20;108413;1260;108806;-79
2023/10/16 17:48:25;;;;;;;254.10;113.70;;;;;;;7.52;65.43;99462.83;108293;1260;94418;-79
2023/10/16 17:50:54;;;;;;;309.50;131.40;;;;;;;7.48;65.41;99466.78;108390;1253;95951;-79
2023/10/16 17:53:25;;;;;;;268.80;123.50;;;;;;;7.43;65.63;99470.00;108374;1254;108874;-79
2023/10/16 17:55:54;;;;;;;145.20;70.30;;;;;;;7.37;65.55;99466.14;108407;1254;95328;-79
2023/10/16 17:58:25;;;;;;;146.00;78.10;;;;;;;7.32;65.40;99467.97;108295;1253;107847;-79
2023/10/16 18:01:08;;;;;;;65.70;41.50;;;;;;;7.28;65.51;99466.95;108411;1253;94418;-78
2023/10/16 18:03:37;;;;;;;46.40;28.50;;;;;;;7.25;65.49;99469.71;108452;1254;94693;-80
2023/10/16 18:06:11;;;;;;;32.40;19.10;;;;;;;7.20;65.62;99472.48;108446;1259;109882;-79
2023/10/16 18:08:43;;;;;;;40.90;21.90;;;;;;;7.18;65.59;99476.79;108416;1253;95518;-79
2023/10/16 18:11:31;;;;;;;;;;;;;;;;;;;;;
2023/10/16 18:14:04;;;;;;;34.90;17.40;;;;;;;7.14;65.55;99484.02;108493;1254;94487;-80
2023/10/16 18:16:42;;;;;;;26.40;13.00;;;;;;;7.10;65.56;99484.62;108400;1254;94769;-80